sensor_id;sensor_type;location;lat;lon;timestamp;P1;durP1;ratioP1;P2;durP2;ratioP2
71360;SDS011;59166;48.908;1.870;2023-07-13T00:04:09;7.03;;;1.80;;
71360;SDS011;59166;48.908;1.870;2023-07-13T00:09:10;6.63;;;1.70;;
71360;SDS011;59166;48.908;1.870;2023-07-13T00:14:12;7.00;;;1.90;;
71360;SDS011;59166;48.908;1.870;2023-07-13T00:19:14;8.00;;;2.00;;
71360;SDS011;59166;48.908;1.870;2023-07-13T00:24:16;8.70;;;1.90;;
71360;SDS011;59166;48.908;1.870;2023-07-13T00:29:18;7.68;;;2.00;;
71360;SDS011;59166;48.908;1.870;2023-07-13T00:34:20;9.23;;;1.83;;
71360;SDS011;59166;48.908;1.870;2023-07-13T00:39:21;6.75;;;1.70;;
71360;SDS011;59166;48.908;1.870;2023-07-13T00:44:22;5.15;;;1.60;;
71360;SDS011;59166;48.908;1.870;2023-07-13T00:49:25;7.13;;;1.67;;
71360;SDS011;59166;48.908;1.870;2023-07-13T00:54:30;6.57;;;1.60;;
71360;SDS011;59166;48.908;1.870;2023-07-13T00:59:34;8.23;;;1.77;;
71360;SDS011;59166;48.908;1.870;2023-07-13T01:04:38;6.50;;;1.55;;
71360;SDS011;59166;48.908;1.870;2023-07-13T01:09:39;7.47;;;1.80;;
71360;SDS011;59166;48.908;1.870;2023-07-13T01:14:40;7.27;;;1.60;;
71360;SDS011;59166;48.908;1.870;2023-07-13T01:19:43;8.70;;;1.60;;
71360;SDS011;59166;48.908;1.870;2023-07-13T01:24:47;8.98;;;2.13;;
71360;SDS011;59166;48.908;1.870;2023-07-13T01:29:48;9.07;;;2.10;;
71360;SDS011;59166;48.908;1.870;2023-07-13T01:34:49;6.90;;;1.57;;
71360;SDS011;59166;48.908;1.870;2023-07-13T01:39:51;6.22;;;1.73;;
71360;SDS011;59166;48.908;1.870;2023-07-13T01:44:52;6.87;;;1.70;;
71360;SDS011;59166;48.908;1.870;2023-07-13T01:49:53;4.40;;;1.47;;
71360;SDS011;59166;48.908;1.870;2023-07-13T01:54:55;9.17;;;2.00;;
71360;SDS011;59166;48.908;1.870;2023-07-13T01:59:56;7.18;;;1.67;;
71360;SDS011;59166;48.908;1.870;2023-07-13T02:04:57;7.30;;;1.70;;
71360;SDS011;59166;48.908;1.870;2023-07-13T02:09:59;5.70;;;1.80;;
71360;SDS011;59166;48.908;1.870;2023-07-13T02:15:00;7.40;;;1.80;;
71360;SDS011;59166;48.908;1.870;2023-07-13T02:20:01;9.30;;;1.70;;
71360;SDS011;59166;48.908;1.870;2023-07-13T02:25:05;7.70;;;1.90;;
71360;SDS011;59166;48.908;1.870;2023-07-13T02:30:06;7.53;;;1.63;;
71360;SDS011;59166;48.908;1.870;2023-07-13T02:35:08;6.32;;;1.60;;
71360;SDS011;59166;48.908;1.870;2023-07-13T02:40:11;7.13;;;1.67;;
71360;SDS011;59166;48.908;1.870;2023-07-13T02:45:12;6.65;;;1.70;;
71360;SDS011;59166;48.908;1.870;2023-07-13T02:50:13;8.13;;;1.77;;
71360;SDS011;59166;48.908;1.870;2023-07-13T02:55:15;7.90;;;1.67;;
71360;SDS011;59166;48.908;1.870;2023-07-13T03:00:16;8.63;;;1.80;;
71360;SDS011;59166;48.908;1.870;2023-07-13T03:05:18;6.53;;;1.63;;
71360;SDS011;59166;48.908;1.870;2023-07-13T03:10:20;10.13;;;2.20;;
71360;SDS011;59166;48.908;1.870;2023-07-13T03:15:21;6.93;;;1.60;;
71360;SDS011;59166;48.908;1.870;2023-07-13T03:20:22;9.83;;;1.97;;
71360;SDS011;59166;48.908;1.870;2023-07-13T03:25:24;8.35;;;1.90;;
71360;SDS011;59166;48.908;1.870;2023-07-13T03:30:25;6.82;;;1.85;;
71360;SDS011;59166;48.908;1.870;2023-07-13T03:35:26;8.57;;;1.80;;
71360;SDS011;59166;48.908;1.870;2023-07-13T03:40:28;7.43;;;2.00;;
71360;SDS011;59166;48.908;1.870;2023-07-13T03:45:29;7.97;;;1.73;;
71360;SDS011;59166;48.908;1.870;2023-07-13T03:50:30;5.75;;;1.70;;
71360;SDS011;59166;48.908;1.870;2023-07-13T03:55:32;5.77;;;1.67;;
71360;SDS011;59166;48.908;1.870;2023-07-13T04:00:33;7.03;;;1.83;;
71360;SDS011;59166;48.908;1.870;2023-07-13T04:05:34;5.93;;;1.70;;
71360;SDS011;59166;48.908;1.870;2023-07-13T04:10:36;5.70;;;1.70;;
71360;SDS011;59166;48.908;1.870;2023-07-13T04:15:38;7.73;;;1.83;;
71360;SDS011;59166;48.908;1.870;2023-07-13T04:20:39;6.90;;;1.70;;
71360;SDS011;59166;48.908;1.870;2023-07-13T04:25:44;7.72;;;1.80;;
71360;SDS011;59166;48.908;1.870;2023-07-13T04:30:45;6.35;;;1.92;;
71360;SDS011;59166;48.908;1.870;2023-07-13T04:35:46;6.40;;;1.70;;
71360;SDS011;59166;48.908;1.870;2023-07-13T04:40:48;8.30;;;2.03;;
71360;SDS011;59166;48.908;1.870;2023-07-13T04:45:49;6.35;;;1.83;;
71360;SDS011;59166;48.908;1.870;2023-07-13T04:50:54;9.43;;;2.28;;
71360;SDS011;59166;48.908;1.870;2023-07-13T04:55:57;8.77;;;1.80;;
71360;SDS011;59166;48.908;1.870;2023-07-13T05:01:01;13.43;;;2.03;;
71360;SDS011;59166;48.908;1.870;2023-07-13T05:06:03;8.13;;;1.90;;
71360;SDS011;59166;48.908;1.870;2023-07-13T05:11:06;7.97;;;1.90;;
71360;SDS011;59166;48.908;1.870;2023-07-13T05:16:07;7.97;;;1.97;;
71360;SDS011;59166;48.908;1.870;2023-07-13T05:21:08;11.00;;;2.00;;
71360;SDS011;59166;48.908;1.870;2023-07-13T05:26:12;8.93;;;2.20;;
71360;SDS011;59166;48.908;1.870;2023-07-13T05:31:13;7.80;;;1.73;;
71360;SDS011;59166;48.908;1.870;2023-07-13T05:36:14;9.02;;;2.00;;
71360;SDS011;59166;48.908;1.870;2023-07-13T05:41:16;9.10;;;2.00;;
71360;SDS011;59166;48.908;1.870;2023-07-13T05:46:17;9.93;;;2.17;;
71360;SDS011;59166;48.908;1.870;2023-07-13T05:51:21;8.32;;;2.10;;
71360;SDS011;59166;48.908;1.870;2023-07-13T05:56:26;9.47;;;2.27;;
71360;SDS011;59166;48.908;1.870;2023-07-13T06:01:27;7.57;;;2.10;;
71360;SDS011;59166;48.908;1.870;2023-07-13T06:06:30;8.65;;;2.13;;
71360;SDS011;59166;48.908;1.870;2023-07-13T06:11:32;9.10;;;1.92;;
71360;SDS011;59166;48.908;1.870;2023-07-13T06:16:34;9.73;;;2.50;;
71360;SDS011;59166;48.908;1.870;2023-07-13T06:21:35;9.52;;;2.22;;
71360;SDS011;59166;48.908;1.870;2023-07-13T06:26:37;6.60;;;2.00;;
71360;SDS011;59166;48.908;1.870;2023-07-13T06:31:39;8.65;;;2.20;;
71360;SDS011;59166;48.908;1.870;2023-07-13T06:36:39;8.82;;;2.55;;
71360;SDS011;59166;48.908;1.870;2023-07-13T06:41:42;11.43;;;2.40;;
71360;SDS011;59166;48.908;1.870;2023-07-13T06:46:43;9.38;;;2.35;;
71360;SDS011;59166;48.908;1.870;2023-07-13T06:51:44;10.33;;;2.50;;
71360;SDS011;59166;48.908;1.870;2023-07-13T06:56:46;10.35;;;2.20;;
71360;SDS011;59166;48.908;1.870;2023-07-13T07:01:47;11.27;;;2.60;;
71360;SDS011;59166;48.908;1.870;2023-07-13T07:06:48;11.63;;;2.40;;
71360;SDS011;59166;48.908;1.870;2023-07-13T07:11:51;10.20;;;2.20;;
71360;SDS011;59166;48.908;1.870;2023-07-13T07:16:51;8.50;;;2.27;;
71360;SDS011;59166;48.908;1.870;2023-07-13T07:21:52;8.20;;;2.10;;
71360;SDS011;59166;48.908;1.870;2023-07-13T07:26:55;8.75;;;2.10;;
71360;SDS011;59166;48.908;1.870;2023-07-13T07:31:56;7.97;;;2.00;;
71360;SDS011;59166;48.908;1.870;2023-07-13T07:36:58;10.10;;;2.20;;
71360;SDS011;59166;48.908;1.870;2023-07-13T07:42:05;7.53;;;2.30;;
71360;SDS011;59166;48.908;1.870;2023-07-13T07:47:06;7.55;;;2.00;;
71360;SDS011;59166;48.908;1.870;2023-07-13T07:52:08;5.57;;;1.70;;
71360;SDS011;59166;48.908;1.870;2023-07-13T07:57:10;10.80;;;2.15;;
71360;SDS011;59166;48.908;1.870;2023-07-13T08:02:11;9.98;;;2.20;;
71360;SDS011;59166;48.908;1.870;2023-07-13T08:07:12;9.03;;;2.10;;
71360;SDS011;59166;48.908;1.870;2023-07-13T08:12:15;10.13;;;2.08;;
71360;SDS011;59166;48.908;1.870;2023-07-13T08:17:16;11.55;;;2.40;;
71360;SDS011;59166;48.908;1.870;2023-07-13T08:22:17;6.30;;;1.80;;
71360;SDS011;59166;48.908;1.870;2023-07-13T08:27:19;6.72;;;2.00;;
71360;SDS011;59166;48.908;1.870;2023-07-13T08:32:21;7.27;;;1.70;;
71360;SDS011;59166;48.908;1.870;2023-07-13T08:37:23;7.72;;;2.00;;
71360;SDS011;59166;48.908;1.870;2023-07-13T08:42:29;7.57;;;1.90;;
71360;SDS011;59166;48.908;1.870;2023-07-13T08:47:37;7.37;;;1.80;;
71360;SDS011;59166;48.908;1.870;2023-07-13T08:52:44;6.70;;;1.70;;
71360;SDS011;59166;48.908;1.870;2023-07-13T08:57:48;7.30;;;1.80;;
71360;SDS011;59166;48.908;1.870;2023-07-13T09:03:01;9.33;;;1.97;;
71360;SDS011;59166;48.908;1.870;2023-07-13T09:09:01;5.63;;;1.50;;
71360;SDS011;59166;48.908;1.870;2023-07-13T09:19:53;6.22;;;1.80;;
71360;SDS011;59166;48.908;1.870;2023-07-13T09:35:52;5.95;;;1.70;;
71360;SDS011;59166;48.908;1.870;2023-07-13T09:41:01;5.97;;;1.63;;
71360;SDS011;59166;48.908;1.870;2023-07-13T09:46:19;8.13;;;1.80;;
71360;SDS011;59166;48.908;1.870;2023-07-13T09:51:33;7.13;;;1.80;;
71360;SDS011;59166;48.908;1.870;2023-07-13T09:56:34;7.83;;;1.80;;
71360;SDS011;59166;48.908;1.870;2023-07-13T10:01:36;7.23;;;1.70;;
71360;SDS011;59166;48.908;1.870;2023-07-13T10:06:49;6.85;;;1.60;;
71360;SDS011;59166;48.908;1.870;2023-07-13T10:12:12;6.28;;;1.70;;
71360;SDS011;59166;48.908;1.870;2023-07-13T10:17:29;8.63;;;1.80;;
71360;SDS011;59166;48.908;1.870;2023-07-13T10:22:36;8.48;;;1.55;;
71360;SDS011;59166;48.908;1.870;2023-07-13T10:27:43;7.70;;;1.77;;
71360;SDS011;59166;48.908;1.870;2023-07-13T10:32:46;4.27;;;1.20;;
71360;SDS011;59166;48.908;1.870;2023-07-13T10:37:53;6.28;;;1.50;;
71360;SDS011;59166;48.908;1.870;2023-07-13T10:43:00;7.15;;;1.42;;
71360;SDS011;59166;48.908;1.870;2023-07-13T10:48:05;7.40;;;1.83;;
71360;SDS011;59166;48.908;1.870;2023-07-13T10:53:20;7.70;;;1.60;;
71360;SDS011;59166;48.908;1.870;2023-07-13T10:58:29;5.05;;;1.50;;
71360;SDS011;59166;48.908;1.870;2023-07-13T11:03:35;5.00;;;1.40;;
71360;SDS011;59166;48.908;1.870;2023-07-13T11:08:50;6.67;;;1.67;;
71360;SDS011;59166;48.908;1.870;2023-07-13T11:13:57;5.07;;;1.30;;
71360;SDS011;59166;48.908;1.870;2023-07-13T11:19:23;7.65;;;1.40;;
71360;SDS011;59166;48.908;1.870;2023-07-13T11:24:30;5.00;;;1.30;;
71360;SDS011;59166;48.908;1.870;2023-07-13T11:29:50;6.47;;;1.50;;
71360;SDS011;59166;48.908;1.870;2023-07-13T11:34:51;6.32;;;1.42;;
71360;SDS011;59166;48.908;1.870;2023-07-13T11:39:55;4.40;;;1.40;;
71360;SDS011;59166;48.908;1.870;2023-07-13T11:44:56;5.97;;;1.50;;
71360;SDS011;59166;48.908;1.870;2023-07-13T11:49:57;5.13;;;1.20;;
71360;SDS011;59166;48.908;1.870;2023-07-13T11:55:00;6.55;;;1.40;;
71360;SDS011;59166;48.908;1.870;2023-07-13T12:00:04;4.90;;;1.27;;
71360;SDS011;59166;48.908;1.870;2023-07-13T12:05:13;5.28;;;1.50;;
71360;SDS011;59166;48.908;1.870;2023-07-13T12:10:18;3.53;;;1.20;;
71360;SDS011;59166;48.908;1.870;2023-07-13T12:15:21;5.40;;;1.30;;
71360;SDS011;59166;48.908;1.870;2023-07-13T12:20:24;6.75;;;1.30;;
71360;SDS011;59166;48.908;1.870;2023-07-13T12:25:28;5.85;;;1.20;;
71360;SDS011;59166;48.908;1.870;2023-07-13T12:30:30;5.38;;;1.30;;
71360;SDS011;59166;48.908;1.870;2023-07-13T12:35:38;4.83;;;1.47;;
71360;SDS011;59166;48.908;1.870;2023-07-13T12:40:44;5.90;;;1.42;;
71360;SDS011;59166;48.908;1.870;2023-07-13T12:45:55;5.97;;;1.40;;
71360;SDS011;59166;48.908;1.870;2023-07-13T12:51:00;4.63;;;1.33;;
71360;SDS011;59166;48.908;1.870;2023-07-13T12:56:03;5.95;;;1.60;;
71360;SDS011;59166;48.908;1.870;2023-07-13T13:01:04;6.50;;;1.60;;
71360;SDS011;59166;48.908;1.870;2023-07-13T13:06:19;6.23;;;1.40;;
71360;SDS011;59166;48.908;1.870;2023-07-13T13:11:24;4.57;;;1.40;;
71360;SDS011;59166;48.908;1.870;2023-07-13T13:16:29;6.60;;;1.55;;
71360;SDS011;59166;48.908;1.870;2023-07-13T13:21:32;5.03;;;1.40;;
71360;SDS011;59166;48.908;1.870;2023-07-13T13:26:34;4.87;;;1.40;;
71360;SDS011;59166;48.908;1.870;2023-07-13T13:31:35;5.20;;;1.55;;
71360;SDS011;59166;48.908;1.870;2023-07-13T13:36:37;8.45;;;1.50;;
71360;SDS011;59166;48.908;1.870;2023-07-13T13:41:40;7.10;;;1.67;;
71360;SDS011;59166;48.908;1.870;2023-07-13T13:46:41;6.30;;;1.60;;
71360;SDS011;59166;48.908;1.870;2023-07-13T13:51:43;7.38;;;1.50;;
71360;SDS011;59166;48.908;1.870;2023-07-13T13:56:47;5.40;;;1.50;;
71360;SDS011;59166;48.908;1.870;2023-07-13T14:01:49;4.72;;;1.65;;
71360;SDS011;59166;48.908;1.870;2023-07-13T14:06:50;6.05;;;1.73;;
71360;SDS011;59166;48.908;1.870;2023-07-13T14:11:53;6.50;;;1.77;;
71360;SDS011;59166;48.908;1.870;2023-07-13T14:16:54;5.43;;;1.40;;
71360;SDS011;59166;48.908;1.870;2023-07-13T14:21:55;6.68;;;1.80;;
71360;SDS011;59166;48.908;1.870;2023-07-13T14:26:58;7.00;;;1.40;;
71360;SDS011;59166;48.908;1.870;2023-07-13T14:31:59;5.17;;;1.43;;
71360;SDS011;59166;48.908;1.870;2023-07-13T14:37:00;5.60;;;1.60;;
71360;SDS011;59166;48.908;1.870;2023-07-13T14:42:02;4.80;;;1.50;;
71360;SDS011;59166;48.908;1.870;2023-07-13T14:47:04;5.85;;;1.58;;
71360;SDS011;59166;48.908;1.870;2023-07-13T14:52:09;9.15;;;1.50;;
71360;SDS011;59166;48.908;1.870;2023-07-13T14:57:14;6.55;;;1.60;;
71360;SDS011;59166;48.908;1.870;2023-07-13T15:02:17;5.70;;;1.50;;
71360;SDS011;59166;48.908;1.870;2023-07-13T15:07:21;7.38;;;1.80;;
71360;SDS011;59166;48.908;1.870;2023-07-13T15:12:24;6.88;;;1.42;;
71360;SDS011;59166;48.908;1.870;2023-07-13T15:17:26;6.10;;;1.70;;
71360;SDS011;59166;48.908;1.870;2023-07-13T15:22:35;7.22;;;1.55;;
71360;SDS011;59166;48.908;1.870;2023-07-13T15:27:37;4.80;;;1.37;;
71360;SDS011;59166;48.908;1.870;2023-07-13T15:32:38;5.40;;;1.77;;
71360;SDS011;59166;48.908;1.870;2023-07-13T15:37:39;5.20;;;1.58;;
71360;SDS011;59166;48.908;1.870;2023-07-13T15:42:41;4.80;;;1.50;;
71360;SDS011;59166;48.908;1.870;2023-07-13T15:47:44;6.30;;;1.52;;
71360;SDS011;59166;48.908;1.870;2023-07-13T15:52:46;6.00;;;1.50;;
71360;SDS011;59166;48.908;1.870;2023-07-13T15:57:50;6.13;;;1.50;;
71360;SDS011;59166;48.908;1.870;2023-07-13T16:02:52;5.95;;;1.77;;
71360;SDS011;59166;48.908;1.870;2023-07-13T16:07:54;5.55;;;1.38;;
71360;SDS011;59166;48.908;1.870;2023-07-13T16:12:56;4.93;;;1.70;;
71360;SDS011;59166;48.908;1.870;2023-07-13T16:17:57;4.97;;;1.60;;
71360;SDS011;59166;48.908;1.870;2023-07-13T16:22:58;6.07;;;1.60;;
71360;SDS011;59166;48.908;1.870;2023-07-13T16:28:01;5.87;;;1.67;;
71360;SDS011;59166;48.908;1.870;2023-07-13T16:33:02;7.95;;;1.90;;
71360;SDS011;59166;48.908;1.870;2023-07-13T16:38:10;6.43;;;1.70;;
71360;SDS011;59166;48.908;1.870;2023-07-13T16:43:17;6.60;;;1.77;;
71360;SDS011;59166;48.908;1.870;2023-07-13T16:48:19;5.68;;;1.80;;
71360;SDS011;59166;48.908;1.870;2023-07-13T16:53:22;6.05;;;1.70;;
71360;SDS011;59166;48.908;1.870;2023-07-13T16:58:27;6.20;;;1.90;;
71360;SDS011;59166;48.908;1.870;2023-07-13T17:03:29;5.03;;;1.77;;
71360;SDS011;59166;48.908;1.870;2023-07-13T17:08:30;7.93;;;2.03;;
71360;SDS011;59166;48.908;1.870;2023-07-13T17:13:32;8.00;;;2.10;;
71360;SDS011;59166;48.908;1.870;2023-07-13T17:18:33;6.77;;;1.97;;
71360;SDS011;59166;48.908;1.870;2023-07-13T17:23:33;6.30;;;2.13;;
71360;SDS011;59166;48.908;1.870;2023-07-13T17:28:36;6.27;;;2.10;;
71360;SDS011;59166;48.908;1.870;2023-07-13T17:33:37;8.30;;;2.08;;
71360;SDS011;59166;48.908;1.870;2023-07-13T17:38:41;6.60;;;1.97;;
71360;SDS011;59166;48.908;1.870;2023-07-13T17:43:44;7.22;;;2.30;;
71360;SDS011;59166;48.908;1.870;2023-07-13T17:48:45;7.97;;;2.08;;
71360;SDS011;59166;48.908;1.870;2023-07-13T17:53:48;7.90;;;2.20;;
71360;SDS011;59166;48.908;1.870;2023-07-13T17:58:51;5.78;;;2.10;;
71360;SDS011;59166;48.908;1.870;2023-07-13T18:03:52;8.77;;;2.40;;
71360;SDS011;59166;48.908;1.870;2023-07-13T18:08:53;6.77;;;2.10;;
71360;SDS011;59166;48.908;1.870;2023-07-13T18:13:57;7.25;;;1.95;;
71360;SDS011;59166;48.908;1.870;2023-07-13T18:18:58;7.95;;;1.85;;
71360;SDS011;59166;48.908;1.870;2023-07-13T18:23:59;7.10;;;2.10;;
71360;SDS011;59166;48.908;1.870;2023-07-13T18:29:01;5.95;;;1.90;;
71360;SDS011;59166;48.908;1.870;2023-07-13T18:34:02;7.60;;;2.08;;
71360;SDS011;59166;48.908;1.870;2023-07-13T18:39:04;7.10;;;2.00;;
71360;SDS011;59166;48.908;1.870;2023-07-13T18:44:06;5.82;;;2.08;;
71360;SDS011;59166;48.908;1.870;2023-07-13T18:49:08;8.02;;;2.10;;
71360;SDS011;59166;48.908;1.870;2023-07-13T18:54:12;7.27;;;2.10;;
71360;SDS011;59166;48.908;1.870;2023-07-13T18:59:15;6.50;;;2.03;;
71360;SDS011;59166;48.908;1.870;2023-07-13T19:04:26;7.88;;;2.30;;
71360;SDS011;59166;48.908;1.870;2023-07-13T19:09:28;7.10;;;1.90;;
71360;SDS011;59166;48.908;1.870;2023-07-13T19:14:30;9.30;;;2.20;;
71360;SDS011;59166;48.908;1.870;2023-07-13T19:19:30;7.30;;;2.00;;
71360;SDS011;59166;48.908;1.870;2023-07-13T19:24:31;8.43;;;1.98;;
71360;SDS011;59166;48.908;1.870;2023-07-13T19:29:33;7.50;;;2.00;;
71360;SDS011;59166;48.908;1.870;2023-07-13T19:34:34;8.52;;;2.00;;
71360;SDS011;59166;48.908;1.870;2023-07-13T19:39:35;7.00;;;1.90;;
71360;SDS011;59166;48.908;1.870;2023-07-13T19:44:39;8.55;;;2.10;;
71360;SDS011;59166;48.908;1.870;2023-07-13T19:49:39;6.65;;;1.83;;
71360;SDS011;59166;48.908;1.870;2023-07-13T19:54:40;6.67;;;1.90;;
71360;SDS011;59166;48.908;1.870;2023-07-13T19:59:43;6.88;;;2.10;;
71360;SDS011;59166;48.908;1.870;2023-07-13T20:04:43;6.57;;;2.10;;
71360;SDS011;59166;48.908;1.870;2023-07-13T20:09:44;8.77;;;2.10;;
71360;SDS011;59166;48.908;1.870;2023-07-13T20:14:48;7.63;;;2.00;;
71360;SDS011;59166;48.908;1.870;2023-07-13T20:19:49;5.93;;;2.03;;
71360;SDS011;59166;48.908;1.870;2023-07-13T20:24:50;7.50;;;2.20;;
71360;SDS011;59166;48.908;1.870;2023-07-13T20:29:52;8.07;;;2.20;;
71360;SDS011;59166;48.908;1.870;2023-07-13T20:34:53;7.88;;;2.03;;
71360;SDS011;59166;48.908;1.870;2023-07-13T20:39:53;7.53;;;2.27;;
71360;SDS011;59166;48.908;1.870;2023-07-13T20:44:55;7.17;;;2.20;;
71360;SDS011;59166;48.908;1.870;2023-07-13T20:49:56;6.55;;;2.20;;
71360;SDS011;59166;48.908;1.870;2023-07-13T20:54:57;7.97;;;2.30;;
71360;SDS011;59166;48.908;1.870;2023-07-13T20:59:59;8.35;;;2.50;;
71360;SDS011;59166;48.908;1.870;2023-07-13T21:05:08;7.15;;;2.33;;
71360;SDS011;59166;48.908;1.870;2023-07-13T21:10:15;8.47;;;2.47;;
71360;SDS011;59166;48.908;1.870;2023-07-13T21:15:19;7.78;;;2.28;;
71360;SDS011;59166;48.908;1.870;2023-07-13T21:20:23;6.22;;;2.40;;
71360;SDS011;59166;48.908;1.870;2023-07-13T21:25:26;7.87;;;2.57;;
71360;SDS011;59166;48.908;1.870;2023-07-13T21:30:32;7.67;;;2.27;;
71360;SDS011;59166;48.908;1.870;2023-07-13T21:35:38;7.15;;;2.10;;
71360;SDS011;59166;48.908;1.870;2023-07-13T21:40:41;7.35;;;2.30;;
71360;SDS011;59166;48.908;1.870;2023-07-13T21:45:43;5.97;;;2.20;;
71360;SDS011;59166;48.908;1.870;2023-07-13T21:50:49;6.82;;;2.35;;
71360;SDS011;59166;48.908;1.870;2023-07-13T21:55:51;7.05;;;2.00;;
71360;SDS011;59166;48.908;1.870;2023-07-13T22:00:55;8.47;;;2.80;;
71360;SDS011;59166;48.908;1.870;2023-07-13T22:05:57;8.93;;;2.65;;
71360;SDS011;59166;48.908;1.870;2023-07-13T22:10:58;6.55;;;2.17;;
71360;SDS011;59166;48.908;1.870;2023-07-13T22:16:12;7.53;;;2.17;;
71360;SDS011;59166;48.908;1.870;2023-07-13T22:21:15;8.13;;;2.17;;
71360;SDS011;59166;48.908;1.870;2023-07-13T22:26:18;7.28;;;2.58;;
71360;SDS011;59166;48.908;1.870;2023-07-13T22:31:22;6.17;;;2.23;;
71360;SDS011;59166;48.908;1.870;2023-07-13T22:36:23;8.00;;;2.20;;
71360;SDS011;59166;48.908;1.870;2023-07-13T22:41:24;8.35;;;2.42;;
71360;SDS011;59166;48.908;1.870;2023-07-13T22:46:27;6.80;;;2.37;;
71360;SDS011;59166;48.908;1.870;2023-07-13T22:51:30;10.03;;;2.33;;
71360;SDS011;59166;48.908;1.870;2023-07-13T22:56:31;7.30;;;2.25;;
71360;SDS011;59166;48.908;1.870;2023-07-13T23:01:35;7.07;;;2.30;;
71360;SDS011;59166;48.908;1.870;2023-07-13T23:06:38;7.90;;;2.28;;
71360;SDS011;59166;48.908;1.870;2023-07-13T23:11:39;8.98;;;2.30;;
71360;SDS011;59166;48.908;1.870;2023-07-13T23:16:41;6.73;;;2.20;;
71360;SDS011;59166;48.908;1.870;2023-07-13T23:21:42;9.20;;;2.40;;
71360;SDS011;59166;48.908;1.870;2023-07-13T23:26:45;8.57;;;3.10;;
71360;SDS011;59166;48.908;1.870;2023-07-13T23:31:47;7.47;;;2.90;;
71360;SDS011;59166;48.908;1.870;2023-07-13T23:36:48;7.93;;;2.90;;
71360;SDS011;59166;48.908;1.870;2023-07-13T23:41:49;9.20;;;2.83;;
71360;SDS011;59166;48.908;1.870;2023-07-13T23:46:52;8.88;;;2.97;;
71360;SDS011;59166;48.908;1.870;2023-07-13T23:51:55;9.90;;;4.03;;
71360;SDS011;59166;48.908;1.870;2023-07-13T23:56:57;12.85;;;5.65;;
